Terminal Aerodrome Forecast
Issued by NWS

Home | Current Version | Previous Version | Text Only | Print | Product List | Glossary On
Versions: 1 2 3 4 5 6 7 8 9 10 11 12 13 14 15 16
000
FTUS42 KTBW 232300 RRA
TAFLAL
TAF
KLAL 232343Z 2400/2424 18008KT P6SM SCT030 BKN200
     FM240600 19006KT 3SM BR SCT005 BKN020
     FM240900 19005KT 1SM BR FEW005 BKN020
     FM241200 19006KT 3SM BR FEW005 BKN020
     FM241600 21009KT P6SM FEW010 BKN035
     FM242000 23009KT P6SM SCT025 BKN050
      AMD NOT SKED 2403/2412=

USA.gov is the U.S. government's official web portal to all federal, state and local government web resources and services.